Time;durP1;ratioP1;P1;durP2;ratioP2;P2;SDS_P1;SDS_P2;PMS_P1;PMS_P2;Temp;Humidity;BMP_temperature;BMP_pressure;BME280_temperature;BME280_humidity;BME280_pressure;Samples;Min_cycle;Max_cycle;Signal;HPM_P1;HPM_P2
2021/08/10 00:01:36;;;;;;;5.65;2.00;;;;;;;;;;4978233;28;20109;-74
2021/08/10 00:04:02;;;;;;;2.80;1.80;;;;;;;;;;4975876;28;20031;-73
2021/08/10 00:06:28;;;;;;;2.75;2.08;;;;;;;;;;4984284;28;20068;-74
2021/08/10 00:08:54;;;;;;;7.00;2.05;;;;;;;;;;4984638;28;20489;-73
2021/08/10 00:11:20;;;;;;;3.03;1.80;;;;;;;;;;4982509;28;20478;-73
2021/08/10 00:13:46;;;;;;;2.80;1.88;;;;;;;;;;4980722;28;20033;-73
2021/08/10 00:16:12;;;;;;;3.10;1.95;;;;;;;;;;4983237;28;20560;-74
2021/08/10 00:18:38;;;;;;;2.85;1.70;;;;;;;;;;4984535;28;20038;-73
2021/08/10 00:21:04;;;;;;;4.25;1.92;;;;;;;;;;4984031;28;20165;-73
2021/08/10 00:23:30;;;;;;;2.58;2.00;;;;;;;;;;4974980;28;20050;-73
2021/08/10 00:25:56;;;;;;;4.40;2.08;;;;;;;;;;4973065;28;20019;-73
2021/08/10 00:28:22;;;;;;;3.75;2.22;;;;;;;;;;4979324;28;20018;-73
2021/08/10 00:30:47;;;;;;;2.13;1.77;;;;;;;;;;4987920;28;20508;-73
2021/08/10 00:33:14;;;;;;;3.08;1.73;;;;;;;;;;4982678;28;20449;-73
2021/08/10 00:35:40;;;;;;;2.03;1.83;;;;;;;;;;4978759;28;20027;-73
2021/08/10 00:38:08;;;;;;;2.70;1.92;;;;;;;;;;4978465;28;20449;-74
2021/08/10 00:40:34;;;;;;;3.42;2.08;;;;;;;;;;4981850;28;20100;-73
2021/08/10 00:43:00;;;;;;;2.22;2.00;;;;;;;;;;4980193;28;20118;-74
2021/08/10 00:45:26;;;;;;;2.92;2.28;;;;;;;;;;4995226;28;20145;-73
2021/08/10 00:47:52;;;;;;;6.43;2.10;;;;;;;;;;4985990;28;20030;-73
2021/08/10 00:50:18;;;;;;;2.40;1.85;;;;;;;;;;4982265;28;20576;-73
2021/08/10 00:52:44;;;;;;;2.40;1.83;;;;;;;;;;4987553;28;20110;-74
2021/08/10 00:55:10;;;;;;;1.98;1.75;;;;;;;;;;4978986;28;20118;-73
2021/08/10 00:57:36;;;;;;;3.88;1.90;;;;;;;;;;4983911;28;20014;-74
2021/08/10 01:00:03;;;;;;;2.75;1.60;;;;;;;;;;4982604;28;20042;-73
2021/08/10 01:02:29;;;;;;;1.92;1.75;;;;;;;;;;4983877;28;20065;-73
2021/08/10 01:04:55;;;;;;;2.35;1.83;;;;;;;;;;4986051;28;20049;-73
2021/08/10 01:07:38;;;;;;;3.85;1.92;;;;;;;;;;4983684;28;20026;-74
2021/08/10 01:10:10;;;;;;;2.28;1.55;;;;;;;;;;4971658;28;20046;-73
2021/08/10 01:12:45;;;;;;;6.13;2.13;;;;;;;;;;4980766;28;20113;-73
2021/08/10 01:15:19;;;;;;;4.80;1.88;;;;;;;;;;4985741;28;20042;-74
2021/08/10 01:17:54;;;;;;;2.55;1.80;;;;;;;;;;4983979;28;20026;-74
2021/08/10 01:20:32;;;;;;;4.47;1.70;;;;;;;;;;4986926;28;20043;-74
2021/08/10 01:22:59;;;;;;;3.22;2.08;;;;;;;;;;4988172;28;20105;-73
2021/08/10 01:25:46;;;;;;;2.28;1.70;;;;;;;;;;4986300;28;20026;-73
2021/08/10 01:28:31;;;;;;;2.72;2.03;;;;;;;;;;4988941;28;20153;-74
2021/08/10 01:31:06;;;;;;;4.80;2.08;;;;;;;;;;4989770;28;20038;-74
2021/08/10 01:33:39;;;;;;;3.00;2.00;;;;;;;;;;4980968;28;20027;-74
2021/08/10 01:36:06;;;;;;;2.90;2.10;;;;;;;;;;4990856;28;20026;-73
2021/08/10 01:38:33;;;;;;;3.90;1.90;;;;;;;;;;4989599;28;20069;-73
2021/08/10 01:41:00;;;;;;;2.35;1.90;;;;;;;;;;4988501;28;20030;-74
2021/08/10 01:43:27;;;;;;;2.50;1.70;;;;;;;;;;4986300;28;20037;-73
2021/08/10 01:45:53;;;;;;;2.67;1.85;;;;;;;;;;4991035;28;20072;-73
2021/08/10 01:48:19;;;;;;;2.80;2.00;;;;;;;;;;4984078;28;20497;-73
2021/08/10 01:50:46;;;;;;;1.75;1.52;;;;;;;;;;4977462;28;20022;-73
2021/08/10 01:53:12;;;;;;;4.53;2.28;;;;;;;;;;4983593;28;20081;-74
2021/08/10 01:55:38;;;;;;;2.55;2.20;;;;;;;;;;4987521;28;20034;-73
2021/08/10 01:58:06;;;;;;;4.88;1.85;;;;;;;;;;4978898;28;20026;-73
2021/08/10 02:00:32;;;;;;;2.35;1.83;;;;;;;;;;4988984;28;20019;-73
2021/08/10 02:02:59;;;;;;;3.05;1.92;;;;;;;;;;4989119;28;20030;-73
2021/08/10 02:05:25;;;;;;;3.17;2.00;;;;;;;;;;4985689;28;20125;-73
2021/08/10 02:07:51;;;;;;;3.25;2.08;;;;;;;;;;4988841;28;20109;-74
2021/08/10 02:10:18;;;;;;;2.28;1.88;;;;;;;;;;4989396;28;20049;-73
2021/08/10 02:12:44;;;;;;;3.20;2.10;;;;;;;;;;4983282;28;20034;-73
2021/08/10 02:15:10;;;;;;;2.70;2.20;;;;;;;;;;4988755;28;20140;-73
2021/08/10 02:17:36;;;;;;;4.22;2.08;;;;;;;;;;4988748;28;20080;-73
2021/08/10 02:20:02;;;;;;;5.28;2.30;;;;;;;;;;4983292;28;20078;-73
2021/08/10 02:22:28;;;;;;;2.17;1.75;;;;;;;;;;4976473;28;20026;-73
2021/08/10 02:25:06;;;;;;;2.20;2.00;;;;;;;;;;4977917;28;20145;-73
2021/08/10 02:27:32;;;;;;;3.95;2.28;;;;;;;;;;4981173;28;20035;-73
2021/08/10 02:30:00;;;;;;;2.17;1.92;;;;;;;;;;4987233;28;20022;-73
2021/08/10 02:32:26;;;;;;;6.93;2.28;;;;;;;;;;4983374;28;20636;-75
2021/08/10 02:34:53;;;;;;;3.33;1.95;;;;;;;;;;4988571;28;20041;-73
2021/08/10 02:37:20;;;;;;;3.97;2.58;;;;;;;;;;4989073;28;20460;-73
2021/08/10 02:39:47;;;;;;;3.15;2.10;;;;;;;;;;4987684;28;20104;-73
2021/08/10 02:42:14;;;;;;;6.68;2.47;;;;;;;;;;4977683;28;20038;-74
2021/08/10 02:44:42;;;;;;;4.32;2.22;;;;;;;;;;4990364;28;20030;-74
2021/08/10 02:47:08;;;;;;;4.80;2.42;;;;;;;;;;4979793;28;20109;-73
2021/08/10 02:49:34;;;;;;;6.55;2.08;;;;;;;;;;4984715;28;20114;-73
2021/08/10 02:52:00;;;;;;;3.80;2.17;;;;;;;;;;4982373;28;20033;-73
2021/08/10 02:54:26;;;;;;;6.22;2.58;;;;;;;;;;4985531;28;20036;-73
2021/08/10 02:56:56;;;;;;;3.90;2.08;;;;;;;;;;4989264;28;20109;-73
2021/08/10 02:59:27;;;;;;;3.60;2.22;;;;;;;;;;4980474;28;20042;-73
2021/08/10 03:01:53;;;;;;;;;;;;;;;;;;4977558;28;20018;-73
2021/08/10 03:04:21;;;;;;;4.32;2.40;;;;;;;;;;4981842;28;20395;-73
2021/08/10 03:06:47;;;;;;;5.47;2.25;;;;;;;;;;4989122;28;20097;-73
2021/08/10 03:09:14;;;;;;;2.72;2.13;;;;;;;;;;4984400;28;20038;-74
2021/08/10 03:11:41;;;;;;;3.92;2.20;;;;;;;;;;4981094;28;20049;-73
2021/08/10 03:14:09;;;;;;;2.90;2.38;;;;;;;;;;4984185;28;20121;-74
2021/08/10 03:16:36;;;;;;;5.28;2.13;;;;;;;;;;4976551;28;20168;-73
2021/08/10 03:19:04;;;;;;;5.03;2.40;;;;;;;;;;4980719;28;20081;-73
2021/08/10 03:21:30;;;;;;;2.22;1.92;;;;;;;;;;4980535;28;20146;-74
2021/08/10 03:23:57;;;;;;;4.85;2.53;;;;;;;;;;4986318;28;20101;-73
2021/08/10 03:26:24;;;;;;;2.75;2.25;;;;;;;;;;4981270;28;20026;-73
2021/08/10 03:28:51;;;;;;;6.82;2.33;;;;;;;;;;4988553;28;20060;-73
2021/08/10 03:31:17;;;;;;;3.80;2.40;;;;;;;;;;4985648;28;20053;-73
2021/08/10 03:33:44;;;;;;;4.43;2.50;;;;;;;;;;4984809;28;20390;-73
2021/08/10 03:36:11;;;;;;;2.65;2.33;;;;;;;;;;4988403;28;20467;-73
2021/08/10 03:38:37;;;;;;;2.38;2.10;;;;;;;;;;4971140;28;20054;-74
2021/08/10 03:41:03;;;;;;;7.22;2.47;;;;;;;;;;4983474;28;20105;-74
2021/08/10 03:43:30;;;;;;;3.80;2.28;;;;;;;;;;4972078;28;20487;-73
2021/08/10 03:45:56;;;;;;;2.40;2.20;;;;;;;;;;4986809;28;20026;-74
2021/08/10 03:48:22;;;;;;;4.25;2.60;;;;;;;;;;4970204;28;20049;-73
2021/08/10 03:50:53;;;;;;;3.13;2.30;;;;;;;;;;4985243;28;20031;-73
2021/08/10 03:53:21;;;;;;;2.72;2.33;;;;;;;;;;4986077;28;20026;-73
2021/08/10 03:55:48;;;;;;;3.53;2.58;;;;;;;;;;4986635;28;20023;-73
2021/08/10 03:58:14;;;;;;;3.60;2.22;;;;;;;;;;4970473;28;20022;-73
2021/08/10 04:00:41;;;;;;;3.95;2.20;;;;;;;;;;4991237;28;20438;-73
2021/08/10 04:03:10;;;;;;;3.80;2.75;;;;;;;;;;4975795;28;20440;-73
2021/08/10 04:05:39;;;;;;;4.85;2.63;;;;;;;;;;4984568;28;20085;-73
2021/08/10 04:08:05;;;;;;;5.38;2.20;;;;;;;;;;4979684;28;20031;-73
2021/08/10 04:10:31;;;;;;;6.00;2.40;;;;;;;;;;4982478;28;20054;-73
2021/08/10 04:12:57;;;;;;;2.75;2.28;;;;;;;;;;4980802;28;20629;-73
2021/08/10 04:15:24;;;;;;;4.53;2.47;;;;;;;;;;4982405;28;20125;-73
2021/08/10 04:17:50;;;;;;;3.65;2.38;;;;;;;;;;4977777;28;20433;-73
2021/08/10 04:20:18;;;;;;;7.13;2.55;;;;;;;;;;4969579;28;20042;-73
2021/08/10 04:22:44;;;;;;;4.20;2.45;;;;;;;;;;4987492;28;20034;-73
2021/08/10 04:25:10;;;;;;;3.35;2.67;;;;;;;;;;4980976;28;20035;-73
2021/08/10 04:27:36;;;;;;;6.22;2.92;;;;;;;;;;4980103;28;20117;-73
2021/08/10 04:30:02;;;;;;;5.32;2.83;;;;;;;;;;4979424;28;20240;-74
2021/08/10 04:32:28;;;;;;;2.90;1.95;;;;;;;;;;4984117;28;20030;-73
2021/08/10 04:34:54;;;;;;;4.50;2.50;;;;;;;;;;4976706;28;20034;-73
2021/08/10 04:37:20;;;;;;;3.95;2.65;;;;;;;;;;4985485;28;20536;-73
2021/08/10 04:39:46;;;;;;;3.17;2.30;;;;;;;;;;5002851;28;20068;-73
2021/08/10 04:42:12;;;;;;;4.22;2.40;;;;;;;;;;4986366;28;20105;-73
2021/08/10 04:44:38;;;;;;;7.97;2.50;;;;;;;;;;4989841;28;20473;-73
2021/08/10 04:47:04;;;;;;;2.75;2.22;;;;;;;;;;4988958;28;20644;-73
2021/08/10 04:49:30;;;;;;;7.07;2.38;;;;;;;;;;4983433;28;20755;-74
2021/08/10 04:51:56;;;;;;;5.15;2.55;;;;;;;;;;4984743;28;20030;-72
2021/08/10 04:54:22;;;;;;;5.38;2.50;;;;;;;;;;4987578;28;20109;-73
2021/08/10 04:56:47;;;;;;;4.88;2.70;;;;;;;;;;4983368;28;20040;-73
2021/08/10 04:59:13;;;;;;;4.20;2.60;;;;;;;;;;4981119;28;20022;-73
2021/08/10 05:01:40;;;;;;;4.75;2.30;;;;;;;;;;4987923;28;20036;-75
2021/08/10 05:04:06;;;;;;;4.47;2.30;;;;;;;;;;4988522;28;20038;-75
2021/08/10 05:06:35;;;;;;;6.25;3.03;;;;;;;;;;4982608;28;20031;-76
2021/08/10 05:09:01;;;;;;;5.28;3.25;;;;;;;;;;4986591;28;20052;-76
2021/08/10 05:11:27;;;;;;;3.90;2.58;;;;;;;;;;4985749;28;20128;-76
2021/08/10 05:13:53;;;;;;;4.13;2.60;;;;;;;;;;4987248;28;20032;-76
2021/08/10 05:16:18;;;;;;;5.70;2.58;;;;;;;;;;4986673;28;20109;-76
2021/08/10 05:18:47;;;;;;;2.85;2.25;;;;;;;;;;4984257;28;20031;-75
2021/08/10 05:21:15;;;;;;;4.88;2.60;;;;;;;;;;4987696;28;20058;-73
2021/08/10 05:23:41;;;;;;;3.28;2.15;;;;;;;;;;4985204;28;20032;-74
2021/08/10 05:26:07;;;;;;;3.92;2.47;;;;;;;;;;4980260;28;20380;-79
2021/08/10 05:28:33;;;;;;;4.65;2.45;;;;;;;;;;4985672;28;20418;-76
2021/08/10 05:30:59;;;;;;;5.97;3.00;;;;;;;;;;4987922;28;20022;-76
2021/08/10 05:33:25;;;;;;;4.25;2.85;;;;;;;;;;4982457;28;20363;-73
2021/08/10 05:35:50;;;;;;;4.57;2.50;;;;;;;;;;4990141;28;20038;-72
2021/08/10 05:38:43;;;;;;;3.97;2.85;;;;;;;;;;4990555;28;20039;-72
2021/08/10 05:41:09;;;;;;;4.10;2.97;;;;;;;;;;4979857;28;20112;-72
2021/08/10 05:43:35;;;;;;;4.03;3.00;;;;;;;;;;4982697;28;20367;-72
2021/08/10 05:46:01;;;;;;;3.40;2.60;;;;;;;;;;4998511;28;20026;-72
2021/08/10 05:48:27;;;;;;;6.30;3.28;;;;;;;;;;4988310;28;20018;-72
2021/08/10 05:50:53;;;;;;;3.42;2.63;;;;;;;;;;4977519;28;20137;-73
2021/08/10 05:53:19;;;;;;;4.72;2.78;;;;;;;;;;4976657;28;20027;-73
2021/08/10 05:55:45;;;;;;;5.65;2.53;;;;;;;;;;4983453;28;20015;-72
2021/08/10 05:58:11;;;;;;;4.45;2.55;;;;;;;;;;4982390;28;20038;-73
2021/08/10 06:00:37;;;;;;;3.38;2.58;;;;;;;;;;4981695;28;20026;-73
2021/08/10 06:03:03;;;;;;;4.32;2.50;;;;;;;;;;4978129;28;20083;-72
2021/08/10 06:05:29;;;;;;;4.22;2.83;;;;;;;;;;4987561;28;20491;-74
2021/08/10 06:07:55;;;;;;;3.58;2.47;;;;;;;;;;4975980;28;20370;-73
2021/08/10 06:10:21;;;;;;;4.13;2.50;;;;;;;;;;4977297;28;20050;-73
2021/08/10 06:12:47;;;;;;;5.28;2.33;;;;;;;;;;4990080;28;20243;-74
2021/08/10 06:15:13;;;;;;;2.50;2.20;;;;;;;;;;4988166;28;20489;-73
2021/08/10 06:17:39;;;;;;;2.60;2.20;;;;;;;;;;4983461;28;20022;-72
2021/08/10 06:20:05;;;;;;;3.05;2.10;;;;;;;;;;4987788;28;20117;-73
2021/08/10 06:22:31;;;;;;;4.80;2.60;;;;;;;;;;4976478;28;20089;-72
2021/08/10 06:24:57;;;;;;;5.15;2.80;;;;;;;;;;4982268;28;20034;-72
2021/08/10 06:27:23;;;;;;;5.28;2.67;;;;;;;;;;4977725;28;20023;-72
2021/08/10 06:29:49;;;;;;;7.28;2.33;;;;;;;;;;4982252;28;20034;-72
2021/08/10 06:32:15;;;;;;;4.57;2.35;;;;;;;;;;4982501;28;20045;-72
2021/08/10 06:34:41;;;;;;;6.65;2.60;;;;;;;;;;4971118;28;20031;-72
2021/08/10 06:37:07;;;;;;;4.35;2.50;;;;;;;;;;4972277;28;20457;-73
2021/08/10 06:39:33;;;;;;;3.83;2.45;;;;;;;;;;4971060;28;20086;-73
2021/08/10 06:41:59;;;;;;;4.32;2.60;;;;;;;;;;4978302;28;20026;-73
2021/08/10 06:44:25;;;;;;;5.53;2.58;;;;;;;;;;4986073;28;20034;-72
2021/08/10 06:46:51;;;;;;;8.70;2.70;;;;;;;;;;4996690;28;20073;-72
2021/08/10 06:49:17;;;;;;;3.97;2.30;;;;;;;;;;4975561;28;20031;-72
2021/08/10 06:51:43;;;;;;;3.47;2.30;;;;;;;;;;4978969;28;20022;-72
2021/08/10 06:54:09;;;;;;;4.78;2.30;;;;;;;;;;4975404;28;20038;-72
2021/08/10 06:56:35;;;;;;;7.03;2.50;;;;;;;;;;4970800;28;20122;-73
2021/08/10 06:59:01;;;;;;;4.93;1.98;;;;;;;;;;4971309;28;20022;-73
2021/08/10 07:01:27;;;;;;;7.82;2.10;;;;;;;;;;4986792;28;20030;-74
2021/08/10 07:03:56;;;;;;;3.67;2.05;;;;;;;;;;4982818;28;20022;-73
2021/08/10 07:06:22;;;;;;;4.00;2.22;;;;;;;;;;4978131;28;20049;-73
2021/08/10 07:08:53;;;;;;;5.55;2.35;;;;;;;;;;4982129;28;20058;-73
2021/08/10 07:11:19;;;;;;;3.80;2.27;;;;;;;;;;4970560;28;20070;-72
2021/08/10 07:13:45;;;;;;;4.03;2.13;;;;;;;;;;4979421;28;20274;-73
2021/08/10 07:16:11;;;;;;;2.03;1.83;;;;;;;;;;4970589;28;20038;-73
2021/08/10 07:18:37;;;;;;;3.08;1.98;;;;;;;;;;4982924;28;20034;-73
2021/08/10 07:21:03;;;;;;;2.67;2.00;;;;;;;;;;4981493;28;20022;-73
2021/08/10 07:23:29;;;;;;;4.72;2.10;;;;;;;;;;4973604;28;20027;-73
2021/08/10 07:25:55;;;;;;;2.88;2.08;;;;;;;;;;4988764;28;20105;-72
2021/08/10 07:28:21;;;;;;;3.47;2.00;;;;;;;;;;4977404;28;20671;-73
2021/08/10 07:30:47;;;;;;;6.53;1.75;;;;;;;;;;4975697;28;20035;-73
2021/08/10 07:33:13;;;;;;;3.92;2.15;;;;;;;;;;4979942;28;20062;-73
2021/08/10 07:35:39;;;;;;;7.28;1.92;;;;;;;;;;4975727;28;20031;-72
2021/08/10 07:38:05;;;;;;;4.18;2.17;;;;;;;;;;4980853;28;20027;-73
2021/08/10 07:40:31;;;;;;;4.03;2.00;;;;;;;;;;4972039;28;20044;-72
2021/08/10 07:42:57;;;;;;;7.78;2.20;;;;;;;;;;4970161;28;20026;-72
2021/08/10 07:45:25;;;;;;;2.78;2.10;;;;;;;;;;4994618;28;20058;-73
2021/08/10 07:47:51;;;;;;;6.28;2.00;;;;;;;;;;4977162;28;20038;-72
2021/08/10 07:50:19;;;;;;;7.45;2.50;;;;;;;;;;4969677;28;20211;-73
2021/08/10 07:52:47;;;;;;;7.05;2.08;;;;;;;;;;4975827;28;20031;-73
2021/08/10 07:55:13;;;;;;;2.85;2.17;;;;;;;;;;4971611;28;20030;-72
2021/08/10 07:57:42;;;;;;;5.50;2.72;;;;;;;;;;4969563;28;20445;-73
2021/08/10 08:00:09;;;;;;;7.47;2.33;;;;;;;;;;4973758;28;20026;-73
2021/08/10 08:02:34;;;;;;;6.78;2.33;;;;;;;;;;4971505;28;20027;-73
2021/08/10 08:05:00;;;;;;;3.42;2.15;;;;;;;;;;4976177;28;20224;-72
2021/08/10 08:07:26;;;;;;;5.30;2.17;;;;;;;;;;4982818;28;20030;-73
2021/08/10 08:09:52;;;;;;;4.38;2.45;;;;;;;;;;4969559;28;20050;-73
2021/08/10 08:12:18;;;;;;;3.50;2.30;;;;;;;;;;4979763;28;20122;-73
2021/08/10 08:14:45;;;;;;;2.92;2.30;;;;;;;;;;4970105;28;20031;-73
2021/08/10 08:17:12;;;;;;;7.25;2.38;;;;;;;;;;4977077;28;20034;-72
2021/08/10 08:19:38;;;;;;;5.45;2.20;;;;;;;;;;4979279;28;20045;-72
2021/08/10 08:22:04;;;;;;;9.98;2.55;;;;;;;;;;4983120;28;20034;-73
2021/08/10 08:24:30;;;;;;;8.15;2.75;;;;;;;;;;4977672;28;20045;-72
2021/08/10 08:26:56;;;;;;;5.90;2.63;;;;;;;;;;4970935;28;20434;-72
2021/08/10 08:29:22;;;;;;;5.35;2.20;;;;;;;;;;4974056;28;20065;-72
2021/08/10 08:31:48;;;;;;;5.45;2.08;;;;;;;;;;4976057;28;20545;-72
2021/08/10 08:34:14;;;;;;;3.97;2.22;;;;;;;;;;4972752;28;20085;-73
2021/08/10 08:36:42;;;;;;;4.45;2.30;;;;;;;;;;4976060;28;20038;-72
2021/08/10 08:39:08;;;;;;;7.10;2.25;;;;;;;;;;4972151;28;20122;-73
2021/08/10 08:41:34;;;;;;;4.85;1.88;;;;;;;;;;4969610;28;20110;-72
2021/08/10 08:44:00;;;;;;;4.03;2.03;;;;;;;;;;4974587;28;20030;-73
2021/08/10 08:46:27;;;;;;;8.88;2.25;;;;;;;;;;4987468;28;20121;-72
2021/08/10 08:48:54;;;;;;;3.72;1.80;;;;;;;;;;4985702;28;20031;-72
2021/08/10 08:51:24;;;;;;;3.35;2.03;;;;;;;;;;4970904;28;20027;-73
2021/08/10 08:53:51;;;;;;;3.33;1.83;;;;;;;;;;4969179;28;20553;-73
2021/08/10 08:56:19;;;;;;;4.38;2.00;;;;;;;;;;4983591;28;20031;-73
2021/08/10 08:58:45;;;;;;;2.85;2.05;;;;;;;;;;4976747;28;20053;-73
2021/08/10 09:01:14;;;;;;;4.00;2.10;;;;;;;;;;4972206;28;20046;-73
2021/08/10 09:03:40;;;;;;;4.03;2.20;;;;;;;;;;4971865;28;20171;-73
2021/08/10 09:06:06;;;;;;;3.00;1.95;;;;;;;;;;4977183;28;20050;-73
2021/08/10 09:08:33;;;;;;;5.60;2.33;;;;;;;;;;4980681;28;20511;-72
2021/08/10 09:11:00;;;;;;;3.60;1.88;;;;;;;;;;4981829;28;20038;-73
2021/08/10 09:13:26;;;;;;;6.20;2.10;;;;;;;;;;4969402;28;20073;-73
2021/08/10 09:15:52;;;;;;;4.70;1.92;;;;;;;;;;4972327;28;20035;-73
2021/08/10 09:18:22;;;;;;;2.55;2.33;;;;;;;;;;4975059;28;20569;-73
2021/08/10 09:21:01;;;;;;;5.00;2.10;;;;;;;;;;4978485;28;20041;-73
2021/08/10 09:23:41;;;;;;;3.88;2.30;;;;;;;;;;4969078;28;20038;-73
2021/08/10 09:26:09;;;;;;;4.75;2.10;;;;;;;;;;4977647;28;20470;-72
2021/08/10 09:28:35;;;;;;;5.10;2.15;;;;;;;;;;4978728;28;20030;-73
2021/08/10 09:31:20;;;;;;;2.85;2.13;;;;;;;;;;4971843;28;20035;-73
2021/08/10 09:33:46;;;;;;;8.38;2.25;;;;;;;;;;4982591;28;20073;-72
2021/08/10 09:36:21;;;;;;;5.13;2.17;;;;;;;;;;4984077;28;20587;-73
2021/08/10 09:38:48;;;;;;;4.63;1.83;;;;;;;;;;4982772;28;20113;-73
2021/08/10 09:41:16;;;;;;;4.10;1.70;;;;;;;;;;4988592;28;20015;-73
2021/08/10 09:43:42;;;;;;;5.38;1.73;;;;;;;;;;4990082;28;20085;-72
2021/08/10 09:46:15;;;;;;;4.07;1.85;;;;;;;;;;4991625;28;20033;-75
2021/08/10 09:48:52;;;;;;;5.10;1.90;;;;;;;;;;4984500;28;20030;-73
2021/08/10 09:51:21;;;;;;;6.03;1.88;;;;;;;;;;4993513;28;20057;-74
2021/08/10 09:54:10;;;;;;;3.35;2.00;;;;;;;;;;4994748;28;20055;-72
2021/08/10 09:56:50;;;;;;;3.30;1.73;;;;;;;;;;4979143;28;20085;-73
2021/08/10 09:59:16;;;;;;;2.05;1.73;;;;;;;;;;4974647;28;20397;-72
2021/08/10 10:01:43;;;;;;;3.75;1.75;;;;;;;;;;4987594;28;20031;-72
2021/08/10 10:04:10;;;;;;;4.30;1.92;;;;;;;;;;4986562;28;20030;-72
2021/08/10 10:06:37;;;;;;;3.97;1.50;;;;;;;;;;4990528;28;20405;-72
2021/08/10 10:09:04;;;;;;;2.45;1.30;;;;;;;;;;4976305;28;20093;-73
2021/08/10 10:11:31;;;;;;;3.22;1.73;;;;;;;;;;4984767;28;20026;-73
2021/08/10 10:13:58;;;;;;;2.13;1.42;;;;;;;;;;4974064;28;20034;-72
2021/08/10 10:16:24;;;;;;;3.53;1.67;;;;;;;;;;4971710;28;20081;-72
2021/08/10 10:18:50;;;;;;;3.50;1.45;;;;;;;;;;4971602;28;20121;-72
2021/08/10 10:21:21;;;;;;;2.35;1.38;;;;;;;;;;4978807;28;20329;-72
2021/08/10 10:23:48;;;;;;;2.30;1.52;;;;;;;;;;4975787;28;20501;-72
2021/08/10 10:26:14;;;;;;;3.20;1.75;;;;;;;;;;4979782;28;20051;-72
2021/08/10 10:28:40;;;;;;;4.40;1.70;;;;;;;;;;4982313;28;20438;-72
2021/08/10 10:31:06;;;;;;;5.32;2.08;;;;;;;;;;4971623;28;20170;-72
2021/08/10 10:33:34;;;;;;;3.97;1.80;;;;;;;;;;4982484;28;20055;-72
2021/08/10 10:36:01;;;;;;;5.65;2.00;;;;;;;;;;4982367;28;20022;-73
2021/08/10 10:38:27;;;;;;;4.95;1.83;;;;;;;;;;4977721;28;20398;-72
2021/08/10 10:40:54;;;;;;;4.60;1.80;;;;;;;;;;4979117;28;20474;-72
2021/08/10 10:43:24;;;;;;;3.70;1.70;;;;;;;;;;4977465;28;20031;-72
2021/08/10 10:45:53;;;;;;;4.28;1.70;;;;;;;;;;4989845;28;20113;-72
2021/08/10 10:48:27;;;;;;;3.35;1.90;;;;;;;;;;4988658;28;20058;-73
2021/08/10 10:51:03;;;;;;;4.10;1.67;;;;;;;;;;4980618;28;20485;-72
2021/08/10 10:53:29;;;;;;;5.20;1.38;;;;;;;;;;4987513;28;20474;-72
2021/08/10 10:55:55;;;;;;;5.82;1.70;;;;;;;;;;4984838;28;20038;-72
2021/08/10 10:58:28;;;;;;;4.20;1.65;;;;;;;;;;4984939;28;20030;-72
2021/08/10 11:01:13;;;;;;;3.00;1.85;;;;;;;;;;4981343;28;20034;-72
2021/08/10 11:03:44;;;;;;;2.00;1.35;;;;;;;;;;4989364;28;20037;-72
2021/08/10 11:06:28;;;;;;;1.77;1.60;;;;;;;;;;4989996;28;20031;-72
2021/08/10 11:08:54;;;;;;;3.95;1.45;;;;;;;;;;4978237;28;20030;-72
2021/08/10 11:11:39;;;;;;;4.60;1.92;;;;;;;;;;4989770;28;20057;-72
2021/08/10 11:14:05;;;;;;;2.38;1.67;;;;;;;;;;4976044;28;20432;-73
2021/08/10 11:16:51;;;;;;;1.95;1.48;;;;;;;;;;4985961;28;20034;-72
2021/08/10 11:19:32;;;;;;;3.28;1.55;;;;;;;;;;4985482;28;20066;-72
2021/08/10 11:22:18;;;;;;;3.00;1.88;;;;;;;;;;4985718;28;20636;-72
2021/08/10 11:24:51;;;;;;;3.35;1.35;;;;;;;;;;4975686;28;20039;-72
2021/08/10 11:27:35;;;;;;;5.55;1.58;;;;;;;;;;4981283;28;20030;-72
2021/08/10 11:30:04;;;;;;;2.75;1.40;;;;;;;;;;4980268;28;20101;-72
2021/08/10 11:32:37;;;;;;;3.95;1.88;;;;;;;;;;4979559;28;20034;-72
2021/08/10 11:35:23;;;;;;;5.55;1.80;;;;;;;;;;4989639;28;20026;-72
2021/08/10 11:38:07;;;;;;;3.20;1.52;;;;;;;;;;4976151;28;20620;-72
2021/08/10 11:40:52;;;;;;;2.13;1.58;;;;;;;;;;4972910;28;20031;-72
2021/08/10 11:43:19;;;;;;;2.33;1.90;;;;;;;;;;4977778;28;20215;-72
2021/08/10 11:45:45;;;;;;;2.67;1.65;;;;;;;;;;4991599;28;20139;-72
2021/08/10 11:48:11;;;;;;;5.07;1.70;;;;;;;;;;4989581;28;20049;-72
2021/08/10 11:50:37;;;;;;;5.03;1.95;;;;;;;;;;4978069;28;20478;-72
2021/08/10 11:53:03;;;;;;;3.22;1.80;;;;;;;;;;4981144;28;20520;-73
2021/08/10 11:55:30;;;;;;;3.30;2.00;;;;;;;;;;4979197;28;20034;-73
2021/08/10 11:57:57;;;;;;;3.50;1.90;;;;;;;;;;4985732;28;20045;-74
2021/08/10 12:00:24;;;;;;;4.03;1.83;;;;;;;;;;4983480;28;20026;-75
2021/08/10 12:02:50;;;;;;;3.20;1.95;;;;;;;;;;4981415;28;20061;-75
2021/08/10 12:05:16;;;;;;;2.88;2.15;;;;;;;;;;4987931;28;20109;-74
2021/08/10 12:07:55;;;;;;;5.93;1.98;;;;;;;;;;4988111;28;20497;-73
2021/08/10 12:10:22;;;;;;;5.22;1.70;;;;;;;;;;4981325;28;20042;-74
2021/08/10 12:12:48;;;;;;;4.13;1.98;;;;;;;;;;4985490;28;20042;-72
2021/08/10 12:15:33;;;;;;;3.22;1.77;;;;;;;;;;4980711;28;20085;-72
2021/08/10 12:17:59;;;;;;;4.32;1.77;;;;;;;;;;4987969;28;20041;-72
2021/08/10 12:20:26;;;;;;;3.13;2.00;;;;;;;;;;4983114;28;20042;-72
2021/08/10 12:23:02;;;;;;;12.57;2.72;;;;;;;;;;4986577;28;20033;-72
2021/08/10 12:25:28;;;;;;;4.25;1.88;;;;;;;;;;4971617;28;20390;-72
2021/08/10 12:28:02;;;;;;;2.17;1.92;;;;;;;;;;4986172;28;20730;-72
2021/08/10 12:30:30;;;;;;;5.07;1.92;;;;;;;;;;4987457;28;20022;-73
2021/08/10 12:33:11;;;;;;;3.42;1.70;;;;;;;;;;4985606;28;20030;-73
2021/08/10 12:35:37;;;;;;;;;;;;;;;;;;4981706;28;20038;-74
2021/08/10 12:38:04;;;;;;;4.35;1.67;;;;;;;;;;4987601;28;20285;-73
2021/08/10 12:40:30;;;;;;;2.88;1.80;;;;;;;;;;4980943;28;20035;-72
2021/08/10 12:42:57;;;;;;;3.00;2.20;;;;;;;;;;4975727;28;20398;-72
2021/08/10 12:45:29;;;;;;;3.55;1.95;;;;;;;;;;4986595;28;20478;-72
2021/08/10 12:47:55;;;;;;;4.32;2.05;;;;;;;;;;4978063;28;20389;-72
2021/08/10 12:50:25;;;;;;;2.97;1.90;;;;;;;;;;4986419;28;20038;-72
2021/08/10 12:52:51;;;;;;;5.60;2.10;;;;;;;;;;4986056;28;20187;-73
2021/08/10 12:55:17;;;;;;;3.10;2.03;;;;;;;;;;4989203;28;20472;-72
2021/08/10 12:57:46;;;;;;;2.65;1.70;;;;;;;;;;4972913;28;20038;-72
2021/08/10 13:00:16;;;;;;;4.57;1.90;;;;;;;;;;4982361;28;20517;-73
2021/08/10 13:02:43;;;;;;;6.32;1.83;;;;;;;;;;4970224;28;20580;-72
2021/08/10 13:05:14;;;;;;;3.63;1.90;;;;;;;;;;4993057;28;20028;-73
2021/08/10 13:07:44;;;;;;;2.97;2.10;;;;;;;;;;4977462;28;20081;-75
2021/08/10 13:10:35;;;;;;;2.83;1.60;;;;;;;;;;4975335;28;20039;-75
2021/08/10 13:13:00;;;;;;;;;;;;;;;;;;4983834;28;20069;-76
2021/08/10 13:15:27;;;;;;;3.13;2.45;;;;;;;;;;4989768;28;19945;-76
2021/08/10 13:17:53;;;;;;;2.80;1.55;;;;;;;;;;4992184;28;20019;-76
2021/08/10 13:20:26;;;;;;;3.67;1.65;;;;;;;;;;4990854;28;20035;-76
2021/08/10 13:22:57;;;;;;;3.20;1.77;;;;;;;;;;4984898;28;20402;-76
2021/08/10 13:25:30;;;;;;;4.13;1.52;;;;;;;;;;4990159;28;20117;-74
2021/08/10 13:28:14;;;;;;;4.00;1.67;;;;;;;;;;4987530;28;20040;-74
2021/08/10 13:30:40;;;;;;;1.77;1.40;;;;;;;;;;4986174;28;20034;-73
2021/08/10 13:33:08;;;;;;;5.70;1.50;;;;;;;;;;4975800;28;20026;-73
2021/08/10 13:35:35;;;;;;;2.75;1.98;;;;;;;;;;4986424;28;20034;-73
2021/08/10 13:38:01;;;;;;;4.25;2.38;;;;;;;;;;4988591;28;20042;-74
2021/08/10 13:40:30;;;;;;;4.03;2.90;;;;;;;;;;4990377;28;20037;-74
2021/08/10 13:42:56;;;;;;;3.60;1.85;;;;;;;;;;4983182;28;20022;-73
2021/08/10 13:45:25;;;;;;;3.38;1.90;;;;;;;;;;4987368;28;20030;-73
2021/08/10 13:47:57;;;;;;;3.28;1.90;;;;;;;;;;4984926;28;20265;-76
2021/08/10 13:50:24;;;;;;;5.38;2.45;;;;;;;;;;4989444;28;20750;-75
2021/08/10 13:52:50;;;;;;;6.15;2.60;;;;;;;;;;4982829;28;20125;-74
2021/08/10 13:55:16;;;;;;;4.30;2.22;;;;;;;;;;4980202;28;20030;-75
2021/08/10 13:57:45;;;;;;;3.20;2.13;;;;;;;;;;4987769;28;20041;-76
2021/08/10 14:00:43;;;;;;;5.55;2.05;;;;;;;;;;4977314;28;20393;-74
2021/08/10 14:03:09;;;;;;;3.00;2.10;;;;;;;;;;4982958;28;20121;-76
2021/08/10 14:05:35;;;;;;;3.13;2.30;;;;;;;;;;4989557;28;20023;-73
2021/08/10 14:08:01;;;;;;;2.88;2.05;;;;;;;;;;4979512;28;20038;-76
2021/08/10 14:10:27;;;;;;;2.88;1.83;;;;;;;;;;4986457;28;20122;-74
2021/08/10 14:12:53;;;;;;;2.22;1.65;;;;;;;;;;4987933;28;20116;-73
2021/08/10 14:15:19;;;;;;;2.00;1.60;;;;;;;;;;4988427;28;20061;-74
2021/08/10 14:17:45;;;;;;;3.45;2.00;;;;;;;;;;4983098;28;20078;-74
2021/08/10 14:20:11;;;;;;;2.35;1.77;;;;;;;;;;4985830;28;20449;-75
2021/08/10 14:22:37;;;;;;;3.83;2.00;;;;;;;;;;4984937;28;20022;-74
2021/08/10 14:25:04;;;;;;;3.40;1.88;;;;;;;;;;4987354;28;20085;-76
2021/08/10 14:27:31;;;;;;;2.55;1.73;;;;;;;;;;4989771;28;20113;-75
2021/08/10 14:29:57;;;;;;;3.03;1.63;;;;;;;;;;4990440;28;20042;-75
2021/08/10 14:32:23;;;;;;;1.90;1.45;;;;;;;;;;4985238;28;20030;-76
2021/08/10 14:34:49;;;;;;;2.55;1.50;;;;;;;;;;4979988;28;21333;-74
2021/08/10 14:37:16;;;;;;;4.20;1.90;;;;;;;;;;4982765;28;20030;-72
2021/08/10 14:39:41;;;;;;;2.75;1.60;;;;;;;;;;4984212;28;20537;-72
2021/08/10 14:42:07;;;;;;;2.58;1.85;;;;;;;;;;4976996;28;20025;-72
2021/08/10 14:44:33;;;;;;;2.67;1.90;;;;;;;;;;4981759;28;20037;-73
2021/08/10 14:46:59;;;;;;;4.75;1.58;;;;;;;;;;4984020;28;20022;-73
2021/08/10 14:49:27;;;;;;;2.95;1.77;;;;;;;;;;4982267;28;20048;-73